createdAt,value
2023-05-10T00:04:45.736Z,2.97
2023-05-10T00:09:42.210Z,2.40
2023-05-10T00:19:49.629Z,2.70
2023-05-10T00:24:49.454Z,2.45
2023-05-10T00:35:02.575Z,2.60
2023-05-10T00:50:13.542Z,2.40
2023-05-10T00:55:17.220Z,2.80
2023-05-10T01:00:53.317Z,2.47
2023-05-10T01:05:56.949Z,2.60
2023-05-10T01:10:55.695Z,3.13
2023-05-10T01:40:11.716Z,3.58
2023-05-10T01:45:15.728Z,2.90
2023-05-10T02:01:44.475Z,2.55
2023-05-10T02:07:03.271Z,2.80
2023-05-10T02:12:07.505Z,2.40
2023-05-10T02:17:06.934Z,2.60
2023-05-10T02:22:04.581Z,2.30
2023-05-10T02:27:01.865Z,3.17
2023-05-10T02:31:58.669Z,2.83
2023-05-10T02:36:56.182Z,2.83
2023-05-10T02:41:53.365Z,2.80
2023-05-10T02:46:49.907Z,3.08
2023-05-10T02:51:51.070Z,3.10
2023-05-10T02:56:58.292Z,3.15
2023-05-10T03:01:54.949Z,4.15
2023-05-10T03:06:52.827Z,2.80
2023-05-10T03:12:01.631Z,3.28
2023-05-10T03:17:11.024Z,2.83
2023-05-10T03:22:11.427Z,2.85
2023-05-10T03:27:09.061Z,2.97
2023-05-10T03:32:10.636Z,2.85
2023-05-10T03:37:07.258Z,2.78
2023-05-10T03:47:00.694Z,2.85
2023-05-10T03:51:57.415Z,3.30
2023-05-10T04:01:50.469Z,3.08
2023-05-10T04:11:44.083Z,3.15
2023-05-10T04:16:46.625Z,3.55
2023-05-10T04:21:43.204Z,3.17
2023-05-10T04:26:39.852Z,3.33
2023-05-10T04:36:36.325Z,3.00
2023-05-10T04:47:40.480Z,3.17
2023-05-10T04:57:33.940Z,3.40
2023-05-10T05:02:30.592Z,3.17
2023-05-10T05:07:27.267Z,2.97
2023-05-10T05:17:20.206Z,3.05
2023-05-10T05:27:14.249Z,2.78
2023-05-10T05:32:13.470Z,3.00
2023-05-10T05:37:17.062Z,3.20
2023-05-10T05:42:14.270Z,3.72
2023-05-10T05:47:11.456Z,2.95
2023-05-10T05:52:07.891Z,2.85
2023-05-10T06:07:28.692Z,3.17
2023-05-10T06:12:32.050Z,2.88
2023-05-10T06:22:59.779Z,2.70
2023-05-10T06:33:19.012Z,3.20
2023-05-10T06:38:16.135Z,3.03
2023-05-10T06:43:14.146Z,2.78
2023-05-10T06:48:10.845Z,3.17
2023-05-10T06:53:07.392Z,3.00
2023-05-10T07:03:17.201Z,3.22
2023-05-10T07:08:14.540Z,3.50
2023-05-10T07:13:11.849Z,2.97
2023-05-10T07:18:08.829Z,3.00
2023-05-10T07:23:09.604Z,3.22
2023-05-10T07:28:06.693Z,3.10
2023-05-10T07:33:03.346Z,3.35
2023-05-10T07:38:02.214Z,2.92
2023-05-10T07:43:00.733Z,3.35
2023-05-10T07:47:59.880Z,3.38
2023-05-10T07:52:56.452Z,3.42
2023-05-10T07:57:52.942Z,2.90
2023-05-10T08:02:49.627Z,3.05
2023-05-10T08:07:46.223Z,3.20
2023-05-10T08:12:42.810Z,3.08
2023-05-10T08:17:39.412Z,3.45
2023-05-10T08:22:36.176Z,3.03
2023-05-10T08:27:32.715Z,3.03
2023-05-10T08:32:29.214Z,3.15
2023-05-10T08:37:25.979Z,3.70
2023-05-10T08:42:23.851Z,3.33
2023-05-10T08:47:35.746Z,3.17
2023-05-10T08:52:33.506Z,3.33
2023-05-10T08:57:29.958Z,3.55
2023-05-10T09:02:26.684Z,3.30
2023-05-10T09:07:23.533Z,3.28
2023-05-10T09:12:20.142Z,3.40
2023-05-10T09:17:24.886Z,3.55
2023-05-10T09:22:21.592Z,3.55
2023-05-10T09:27:20.830Z,4.07
2023-05-10T09:32:24.465Z,3.33
2023-05-10T09:37:30.509Z,3.75
2023-05-10T09:42:28.271Z,3.60
2023-05-10T09:47:26.303Z,3.30
2023-05-10T09:52:22.814Z,3.67
2023-05-10T09:57:49.449Z,3.65
2023-05-10T10:02:55.078Z,4.25
2023-05-10T10:07:53.838Z,4.30
2023-05-10T10:12:53.250Z,4.50
2023-05-10T10:17:50.764Z,4.43
2023-05-10T10:22:48.280Z,5.13
2023-05-10T10:27:53.717Z,6.32
2023-05-10T10:33:16.494Z,5.38
2023-05-10T10:38:23.953Z,5.13
2023-05-10T10:43:29.935Z,5.35
2023-05-10T10:48:27.304Z,5.50
2023-05-10T10:53:23.858Z,5.88
2023-05-10T10:58:31.849Z,5.30
2023-05-10T11:03:29.908Z,6.93
2023-05-10T11:08:35.760Z,5.90
2023-05-10T11:13:39.903Z,6.35
2023-05-10T11:18:38.030Z,6.32
2023-05-10T11:23:57.485Z,6.20
2023-05-10T11:28:56.334Z,5.57
2023-05-10T11:33:55.387Z,6.10
2023-05-10T11:38:51.988Z,5.97
2023-05-10T11:43:50.886Z,6.05
2023-05-10T11:48:51.825Z,6.07
2023-05-10T11:53:48.880Z,6.28
2023-05-10T11:58:56.963Z,6.45
2023-05-10T12:03:55.070Z,7.30
2023-05-10T12:08:54.480Z,7.30
2023-05-10T12:13:51.310Z,7.15
2023-05-10T12:19:01.619Z,7.28
2023-05-10T12:24:03.760Z,7.63
2023-05-10T12:29:17.673Z,8.93
2023-05-10T12:34:27.016Z,7.50
2023-05-10T12:39:25.421Z,7.75
2023-05-10T12:44:21.868Z,6.97
2023-05-10T12:49:19.890Z,8.05
2023-05-10T12:54:23.883Z,7.18
2023-05-10T12:59:20.538Z,7.28
2023-05-10T13:04:17.112Z,7.57
2023-05-10T13:09:13.667Z,6.55
2023-05-10T13:14:22.563Z,5.57
2023-05-10T13:19:19.213Z,5.13
2023-05-10T13:24:16.038Z,3.83
2023-05-10T13:29:12.565Z,5.40
2023-05-10T13:34:09.054Z,4.90
2023-05-10T13:39:06.292Z,4.47
2023-05-10T13:44:02.846Z,4.93
2023-05-10T13:48:59.386Z,4.57
2023-05-10T13:53:56.006Z,5.90
2023-05-10T13:58:52.706Z,4.95
2023-05-10T14:03:49.463Z,5.32
2023-05-10T14:08:48.499Z,5.50
2023-05-10T14:13:46.383Z,5.10
2023-05-10T14:18:42.906Z,5.25
2023-05-10T14:23:39.574Z,5.03
2023-05-10T14:28:36.164Z,4.95
2023-05-10T14:33:32.697Z,5.53
2023-05-10T14:38:29.531Z,4.57
2023-05-10T14:43:30.786Z,4.53
2023-05-10T14:48:27.748Z,4.50
2023-05-10T14:53:24.268Z,3.83
2023-05-10T14:58:23.679Z,4.05
2023-05-10T15:03:23.672Z,4.80
2023-05-10T15:08:46.049Z,4.47
2023-05-10T15:13:42.895Z,4.70
2023-05-10T15:18:39.474Z,4.68
2023-05-10T15:23:36.431Z,4.63
2023-05-10T15:28:34.284Z,5.18
2023-05-10T15:33:47.566Z,4.78
2023-05-10T15:38:45.343Z,4.90
2023-05-10T15:43:44.874Z,4.20
2023-05-10T15:48:41.401Z,4.38
2023-05-10T15:53:52.817Z,4.68
2023-05-10T15:58:58.202Z,4.38
2023-05-10T16:03:55.149Z,4.30
2023-05-10T16:08:52.912Z,4.05
2023-05-10T16:20:18.489Z,4.35
2023-05-10T16:25:15.496Z,4.28
2023-05-10T16:30:49.404Z,6.03
2023-05-10T16:35:47.310Z,5.53
2023-05-10T16:40:47.859Z,5.47
2023-05-10T16:46:20.880Z,5.68
2023-05-10T16:51:17.467Z,5.28
2023-05-10T16:56:13.912Z,5.18
2023-05-10T17:01:10.460Z,4.78
2023-05-10T17:06:07.155Z,5.18
2023-05-10T17:11:04.282Z,4.63
2023-05-10T17:16:04.149Z,5.38
2023-05-10T17:21:00.739Z,4.85
2023-05-10T17:25:58.108Z,4.10
2023-05-10T17:30:57.645Z,4.45
2023-05-10T17:35:54.219Z,5.03
2023-05-10T17:40:51.303Z,4.45
2023-05-10T17:45:49.312Z,4.10
2023-05-10T17:50:45.861Z,4.32
2023-05-10T17:55:42.476Z,3.95
2023-05-10T18:00:39.050Z,5.00
2023-05-10T18:05:37.278Z,4.78
2023-05-10T18:10:33.917Z,5.63
2023-05-10T18:15:33.449Z,5.70
2023-05-10T18:20:32.461Z,5.25
2023-05-10T18:25:29.440Z,5.70
2023-05-10T18:30:26.091Z,6.55
2023-05-10T18:35:22.948Z,5.72
2023-05-10T18:40:24.046Z,5.57
2023-05-10T18:45:20.498Z,6.85
2023-05-10T18:50:17.503Z,7.78
2023-05-10T18:55:14.136Z,6.18
2023-05-10T19:00:12.725Z,5.00
2023-05-10T19:05:09.585Z,5.13
2023-05-10T19:10:06.546Z,5.82
2023-05-10T19:15:03.323Z,6.13
2023-05-10T19:20:01.946Z,4.80
2023-05-10T19:25:01.360Z,5.10
2023-05-10T19:29:57.961Z,4.40
2023-05-10T19:34:54.546Z,4.15
2023-05-10T19:39:51.853Z,5.18
2023-05-10T19:44:48.549Z,4.10
2023-05-10T19:49:45.040Z,3.63
2023-05-10T19:54:41.667Z,3.35
2023-05-10T19:59:38.324Z,3.85
2023-05-10T20:04:34.864Z,3.22
2023-05-10T20:09:31.344Z,3.90
2023-05-10T20:19:24.210Z,4.50
2023-05-10T20:24:20.867Z,4.97
2023-05-10T20:29:17.482Z,4.45
2023-05-10T20:34:14.294Z,4.97
2023-05-10T20:39:10.796Z,4.97
2023-05-10T20:49:06.044Z,5.70
2023-05-10T20:54:04.369Z,5.88
2023-05-10T20:59:00.972Z,6.60
2023-05-10T21:03:57.616Z,6.82
2023-05-10T21:08:54.219Z,7.63
2023-05-10T21:18:49.304Z,8.70
2023-05-10T21:23:48.967Z,9.90
2023-05-10T21:28:45.764Z,9.15
2023-05-10T21:33:42.284Z,9.52
2023-05-10T21:43:35.711Z,10.15
2023-05-10T21:53:28.761Z,11.40
2023-05-10T21:58:25.332Z,11.88
2023-05-10T22:08:18.393Z,11.13
2023-05-10T22:18:11.334Z,9.95
2023-05-10T22:23:07.877Z,9.93
2023-05-10T22:33:00.788Z,9.73
2023-05-10T22:42:55.757Z,9.98
2023-05-10T22:47:52.444Z,10.18
2023-05-10T22:52:56.568Z,9.85
2023-05-10T22:57:53.429Z,10.82
2023-05-10T23:02:50.551Z,11.07
2023-05-10T23:07:52.902Z,11.35
2023-05-10T23:12:52.107Z,11.95
2023-05-10T23:17:52.611Z,12.25
2023-05-10T23:22:49.696Z,12.60
2023-05-10T23:27:55.000Z,11.52
2023-05-10T23:32:52.709Z,12.00
2023-05-10T23:37:49.774Z,11.02
2023-05-10T23:42:46.495Z,12.05
2023-05-10T23:47:43.921Z,11.52
2023-05-10T23:52:40.509Z,12.23
